RUNWAY INFORMATION
Runway Length Width Elevation Displaced
Threshold
Heading | Runway Length Width Elevation Displaced
Threshold
Heading
10 7660 ft 148 ft 209 ft 0 ft 110 | 28 7660 ft 148 ft 182 ft 0 ft 290

 AIRPORT FREQUENCIES
Type AFIS Name FSS Frequency 118.1 MHZ
Type RDO Name RDO Frequency 655.3 MHZ

 AIRPORT NEAR NAVIGATION AIDS
Type NDB-DME Name Niue Frequency 345 KHZ

 METAR AND TAF INFORMATION
METAR FOR NIUE
ADDS - METARS form results

(1845 UTC 25 February 2021)
Data provider http://aviationweather.gov/metar/data/
 
METAR text: NIUE 251800Z AUTO 16002KT // 25/24 Q1003
Conditions at: NIUE (ALOFI COOK IS , WS) observed 1800 UTC 25 February 2021
Temperature: 25.0°C (77°F)
Dewpoint: 24.0°C (75°F) [RH = 94%]
Pressure (altimeter): 29.62 inches Hg (1003.0 mb)
Winds: from the SSE (160 degrees) at 2 MPH (2 knots; 1.0 m/s)
Visibility: missing
Ceiling: unknown
Clouds: missing
Weather: no significant weather observed at this time



© 2013 - 2021, FlightSimLog.org - Powered by Virtual Airlines Manager